Time;durP1;ratioP1;P1;durP2;ratioP2;P2;SDS_P1;SDS_P2;PMS_P1;PMS_P2;Temp;Humidity;BMP_temperature;BMP_pressure;BME280_temperature;BME280_humidity;BME280_pressure;Samples;Min_cycle;Max_cycle;Signal;HPM_P1;HPM_P2
2021/05/05 00:02:18;;;;;;;0.40;0.17;;;7.80;99.90;;;;;;5030919;28;20445;-85
2021/05/05 00:04:43;;;;;;;0.70;0.20;;;7.60;99.90;;;;;;5001069;28;20052;-85
2021/05/05 00:07:09;;;;;;;0.77;0.10;;;7.60;99.90;;;;;;5031149;28;20491;-84
2021/05/05 00:09:35;;;;;;;0.50;0.10;;;7.60;99.90;;;;;;5002842;28;20036;-84
2021/05/05 00:12:01;;;;;;;1.50;0.10;;;7.60;99.90;;;;;;4999306;28;20033;-83
2021/05/05 00:14:26;;;;;;;0.30;0.10;;;7.50;99.90;;;;;;5033938;28;20053;-85
2021/05/05 00:16:52;;;;;;;0.43;0.10;;;7.50;99.90;;;;;;5033382;28;20045;-83
2021/05/05 00:19:18;;;;;;;1.35;0.20;;;7.40;99.90;;;;;;5014466;28;20049;-84
2021/05/05 00:21:45;;;;;;;1.35;0.20;;;7.60;99.90;;;;;;5004920;28;20034;-86
2021/05/05 00:24:11;;;;;;;1.10;0.15;;;7.40;99.90;;;;;;5007694;28;20025;-85
2021/05/05 00:26:37;;;;;;;3.00;0.30;;;7.40;99.90;;;;;;5016101;28;20041;-84
2021/05/05 00:29:03;;;;;;;0.30;0.10;;;7.40;99.90;;;;;;5016014;28;20040;-85
2021/05/05 00:31:29;;;;;;;0.47;0.20;;;7.50;99.90;;;;;;5006869;28;20022;-84
2021/05/05 00:33:54;;;;;;;1.08;0.22;;;7.50;99.90;;;;;;4997090;28;20098;-85
2021/05/05 00:36:20;;;;;;;2.20;0.20;;;7.50;99.90;;;;;;5009100;28;20060;-85
2021/05/05 00:38:46;;;;;;;1.17;0.20;;;7.40;99.90;;;;;;5017218;28;20030;-86
2021/05/05 00:41:13;;;;;;;1.67;0.20;;;7.50;99.90;;;;;;5000708;28;20030;-84
2021/05/05 00:43:39;;;;;;;3.33;0.30;;;7.40;99.90;;;;;;5029961;28;20057;-84
2021/05/05 00:46:05;;;;;;;1.33;0.20;;;7.40;99.90;;;;;;5005940;28;20061;-85
2021/05/05 00:48:31;;;;;;;0.63;0.20;;;7.40;99.90;;;;;;5021416;28;20372;-85
2021/05/05 00:50:58;;;;;;;1.45;0.20;;;7.30;99.90;;;;;;5005158;28;20025;-85
2021/05/05 00:53:23;;;;;;;0.75;0.13;;;7.20;99.90;;;;;;4994683;28;20222;-83
2021/05/05 00:55:49;;;;;;;0.83;0.20;;;7.20;99.90;;;;;;5001699;28;20085;-85
2021/05/05 00:58:16;;;;;;;1.48;0.30;;;7.20;99.90;;;;;;5009701;28;20018;-85
2021/05/05 01:00:44;;;;;;;1.40;0.20;;;7.30;99.90;;;;;;4996889;28;20427;-84
2021/05/05 01:03:10;;;;;;;3.70;0.30;;;7.30;99.90;;;;;;4996097;28;20049;-84
2021/05/05 01:05:35;;;;;;;2.88;0.28;;;7.30;99.90;;;;;;5011169;28;20068;-85
2021/05/05 01:08:02;;;;;;;4.57;0.35;;;7.30;99.90;;;;;;5004626;28;20029;-84
2021/05/05 01:10:28;;;;;;;1.90;0.20;;;7.40;99.90;;;;;;5015723;28;20112;-82
2021/05/05 01:12:55;;;;;;;2.58;0.30;;;7.40;99.90;;;;;;5015397;28;20053;-85
2021/05/05 01:15:21;;;;;;;2.28;0.28;;;7.40;99.90;;;;;;4996700;28;20038;-85
2021/05/05 01:17:46;;;;;;;1.40;0.20;;;7.50;99.90;;;;;;5009713;28;20033;-84
2021/05/05 01:20:13;;;;;;;1.50;0.30;;;7.50;99.90;;;;;;5015867;28;20178;-85
2021/05/05 01:22:39;;;;;;;1.07;0.20;;;7.40;99.90;;;;;;5020126;28;20026;-85
2021/05/05 01:25:06;;;;;;;2.47;0.20;;;7.40;99.90;;;;;;4997379;28;20121;-84
2021/05/05 01:27:32;;;;;;;3.25;0.40;;;7.50;99.90;;;;;;5013020;28;20069;-85
2021/05/05 01:29:57;;;;;;;1.38;0.32;;;7.30;99.90;;;;;;5013985;28;20475;-85
2021/05/05 01:32:25;;;;;;;2.72;0.50;;;7.30;99.90;;;;;;4994016;28;20034;-84
2021/05/05 01:34:51;;;;;;;1.20;0.30;;;7.20;99.90;;;;;;5009475;28;20116;-85
2021/05/05 01:37:16;;;;;;;3.72;0.82;;;7.20;99.90;;;;;;5014790;28;20113;-83
2021/05/05 01:39:42;;;;;;;3.60;0.40;;;7.30;99.90;;;;;;5016114;28;20060;-85
2021/05/05 01:42:08;;;;;;;2.97;0.60;;;7.30;99.90;;;;;;5025688;28;20026;-85
2021/05/05 01:44:39;;;;;;;1.70;0.33;;;7.20;99.90;;;;;;5014443;28;20045;-84
2021/05/05 01:47:09;;;;;;;3.70;0.40;;;7.10;99.90;;;;;;4997709;28;20029;-84
2021/05/05 01:49:40;;;;;;;4.13;0.30;;;7.10;99.90;;;;;;4995507;28;20042;-85
2021/05/05 01:52:06;;;;;;;1.67;0.25;;;7.10;99.90;;;;;;5007268;28;20030;-84
2021/05/05 01:54:35;;;;;;;1.40;0.30;;;7.10;99.90;;;;;;5015473;28;20379;-85
2021/05/05 01:57:30;;;;;;;1.43;0.40;;;7.00;99.90;;;;;;5014919;28;20026;-84
2021/05/05 01:59:57;;;;;;;1.50;0.20;;;7.00;99.90;;;;;;5000513;28;20021;-85
2021/05/05 02:02:26;;;;;;;0.43;0.20;;;6.90;99.90;;;;;;5031928;28;20037;-82
2021/05/05 02:04:51;;;;;;;2.87;0.40;;;7.00;99.90;;;;;;5015226;28;20538;-84
2021/05/05 02:07:17;;;;;;;1.60;0.37;;;7.00;99.90;;;;;;5032515;28;20026;-82
2021/05/05 02:09:43;;;;;;;1.70;0.30;;;7.00;99.90;;;;;;4996942;28;20053;-86
2021/05/05 02:12:09;;;;;;;2.37;0.33;;;7.00;99.90;;;;;;4996860;28;20047;-85
2021/05/05 02:14:34;;;;;;;1.43;0.27;;;7.00;99.90;;;;;;4995905;28;20387;-85
2021/05/05 02:17:01;;;;;;;2.17;0.30;;;7.00;99.90;;;;;;5000719;28;20026;-84
2021/05/05 02:19:27;;;;;;;0.77;0.30;;;6.80;99.90;;;;;;4997708;28;20100;-84
2021/05/05 02:21:52;;;;;;;1.70;0.30;;;6.80;99.90;;;;;;5033859;28;20534;-85
2021/05/05 02:24:18;;;;;;;4.53;0.50;;;7.00;99.90;;;;;;5015818;28;20091;-85
2021/05/05 02:26:44;;;;;;;2.30;0.40;;;6.90;99.90;;;;;;4998370;28;20045;-85
2021/05/05 02:29:09;;;;;;;1.35;0.20;;;6.90;99.90;;;;;;5007056;28;20083;-85
2021/05/05 02:31:35;;;;;;;1.60;0.30;;;6.80;99.90;;;;;;4998089;28;20491;-85
2021/05/05 02:34:01;;;;;;;4.03;0.43;;;6.80;99.90;;;;;;4995215;28;20025;-84
2021/05/05 02:36:31;;;;;;;1.37;0.30;;;6.80;99.90;;;;;;4992331;28;20023;-85
2021/05/05 02:38:59;;;;;;;2.60;0.40;;;6.80;99.90;;;;;;4987670;28;20022;-84
2021/05/05 02:41:24;;;;;;;3.50;0.47;;;6.70;99.90;;;;;;4985970;23;20043;-85
2021/05/05 02:43:50;;;;;;;2.80;0.50;;;6.70;99.90;;;;;;4950994;28;20030;-86
2021/05/05 02:46:16;;;;;;;2.07;0.40;;;6.60;99.90;;;;;;4966340;28;20057;-86
2021/05/05 02:48:42;;;;;;;1.73;0.30;;;6.60;99.90;;;;;;4963978;28;20480;-86
2021/05/05 02:51:08;;;;;;;1.27;0.20;;;6.70;99.90;;;;;;4969664;28;20031;-86
2021/05/05 02:53:33;;;;;;;2.93;0.50;;;6.60;99.90;;;;;;4961089;28;20085;-86
2021/05/05 02:55:59;;;;;;;2.90;0.50;;;6.50;99.90;;;;;;4994863;28;20019;-86
2021/05/05 02:58:25;;;;;;;1.70;0.40;;;6.60;99.90;;;;;;4987945;28;20407;-86
2021/05/05 03:00:50;;;;;;;2.50;0.30;;;6.60;99.90;;;;;;4978563;28;20034;-86
2021/05/05 03:03:16;;;;;;;2.30;0.50;;;6.60;99.90;;;;;;4978436;28;20034;-86
2021/05/05 03:05:41;;;;;;;2.07;0.30;;;6.70;99.90;;;;;;4994384;28;20019;-86
2021/05/05 03:08:07;;;;;;;1.07;0.30;;;6.60;99.90;;;;;;4964724;28;20033;-85
2021/05/05 03:10:33;;;;;;;1.23;0.23;;;6.70;99.90;;;;;;4994611;28;20510;-86
2021/05/05 03:12:59;;;;;;;0.97;0.30;;;6.70;99.90;;;;;;4991492;28;20019;-86
2021/05/05 03:15:24;;;;;;;2.43;0.30;;;6.70;99.90;;;;;;4977593;28;20035;-86
2021/05/05 03:17:52;;;;;;;1.57;0.30;;;6.80;99.90;;;;;;4980387;28;20499;-85
2021/05/05 03:20:18;;;;;;;2.17;0.30;;;6.70;99.90;;;;;;5006314;28;20026;-88
2021/05/05 03:22:44;;;;;;;2.67;0.27;;;6.70;99.90;;;;;;4980862;28;20030;-86
2021/05/05 03:25:10;;;;;;;1.17;0.20;;;6.70;99.90;;;;;;4976217;28;20052;-85
2021/05/05 03:27:36;;;;;;;1.53;0.33;;;6.70;99.90;;;;;;4999040;28;20538;-85
2021/05/05 03:30:04;;;;;;;2.13;0.30;;;6.70;99.90;;;;;;4981922;28;20069;-85
2021/05/05 03:32:29;;;;;;;2.43;0.30;;;6.70;99.90;;;;;;4969495;28;20028;-85
2021/05/05 03:34:55;;;;;;;2.13;0.30;;;6.60;99.90;;;;;;4999297;28;20105;-86
2021/05/05 03:37:21;;;;;;;1.20;0.40;;;6.70;99.90;;;;;;4981636;28;20026;-87
2021/05/05 03:39:47;;;;;;;1.57;0.37;;;6.70;99.90;;;;;;4980880;28;20129;-86
2021/05/05 03:42:15;;;;;;;3.73;0.57;;;6.70;99.90;;;;;;4968852;28;20526;-87
2021/05/05 03:44:41;;;;;;;2.53;0.40;;;6.70;99.90;;;;;;4996926;28;20041;-87
2021/05/05 03:47:07;;;;;;;2.80;0.40;;;6.60;99.90;;;;;;4992732;28;20035;-87
2021/05/05 03:49:33;;;;;;;3.70;0.50;;;6.50;99.90;;;;;;4973547;28;20086;-87
2021/05/05 03:51:58;;;;;;;3.10;0.40;;;6.80;99.90;;;;;;4979798;28;20053;-87
2021/05/05 03:54:24;;;;;;;2.17;0.40;;;6.60;99.90;;;;;;4979839;28;20467;-85
2021/05/05 03:56:50;;;;;;;2.90;0.40;;;6.60;99.90;;;;;;4999885;28;20022;-86
2021/05/05 03:59:15;;;;;;;2.03;0.50;;;6.60;99.90;;;;;;4996529;28;20030;-87
2021/05/05 04:01:41;;;;;;;1.80;0.37;;;6.60;99.90;;;;;;4983764;28;20044;-86
2021/05/05 04:04:07;;;;;;;2.80;0.53;;;6.50;99.90;;;;;;4981245;28;20473;-86
2021/05/05 04:06:32;;;;;;;3.03;0.70;;;6.60;99.90;;;;;;4977583;28;20038;-85
2021/05/05 04:08:58;;;;;;;1.10;0.30;;;6.60;99.90;;;;;;4993981;28;20034;-87
2021/05/05 04:11:24;;;;;;;3.83;0.60;;;6.70;99.90;;;;;;5001188;28;20027;-87
2021/05/05 04:13:50;;;;;;;5.20;0.50;;;6.80;99.90;;;;;;4981143;28;20033;-87
2021/05/05 04:16:15;;;;;;;1.40;0.30;;;6.70;99.90;;;;;;4986877;28;20464;-86
2021/05/05 04:18:41;;;;;;;2.17;0.40;;;6.70;99.90;;;;;;4998046;28;20041;-85
2021/05/05 04:21:08;;;;;;;3.20;0.40;;;6.80;99.90;;;;;;4992726;28;20053;-85
2021/05/05 04:23:35;;;;;;;1.93;0.40;;;6.70;99.90;;;;;;4961196;28;20043;-85
2021/05/05 04:26:01;;;;;;;1.43;0.30;;;6.80;99.90;;;;;;4978783;28;20078;-85
2021/05/05 04:28:27;;;;;;;1.27;0.30;;;6.80;99.90;;;;;;4997921;28;20488;-85
2021/05/05 04:30:52;;;;;;;0.80;0.27;;;6.80;99.90;;;;;;4979407;28;20033;-85
2021/05/05 04:33:18;;;;;;;3.70;0.30;;;6.90;99.90;;;;;;4982210;28;20471;-85
2021/05/05 04:35:44;;;;;;;2.40;0.40;;;6.90;99.90;;;;;;4968486;28;20057;-85
2021/05/05 04:38:10;;;;;;;2.33;0.20;;;6.90;99.90;;;;;;4997133;28;20034;-85
2021/05/05 04:40:35;;;;;;;0.90;0.27;;;6.90;99.90;;;;;;4990429;28;20077;-85
2021/05/05 04:43:02;;;;;;;1.03;0.30;;;6.80;99.90;;;;;;4962366;28;20036;-85
2021/05/05 04:45:27;;;;;;;3.53;0.50;;;6.90;99.90;;;;;;4980105;28;20121;-84
2021/05/05 04:47:53;;;;;;;1.27;0.40;;;6.80;99.90;;;;;;4978759;28;20658;-85
2021/05/05 04:50:19;;;;;;;1.77;0.20;;;6.80;99.90;;;;;;4993017;28;20053;-85
2021/05/05 04:52:44;;;;;;;0.83;0.50;;;6.80;99.90;;;;;;4974539;28;20030;-85
2021/05/05 04:55:11;;;;;;;1.08;0.20;;;6.90;99.90;;;;;;4970706;28;20120;-85
2021/05/05 04:57:37;;;;;;;1.70;0.73;;;6.80;99.90;;;;;;4976333;28;20031;-85
2021/05/05 05:00:08;;;;;;;0.90;0.23;;;6.80;99.90;;;;;;4980237;28;20038;-85
2021/05/05 05:02:34;;;;;;;2.80;0.40;;;6.70;99.90;;;;;;4968350;28;20038;-85
2021/05/05 05:05:01;;;;;;;2.67;0.30;;;6.70;99.90;;;;;;4986978;28;20034;-85
2021/05/05 05:07:27;;;;;;;2.20;0.40;;;6.70;99.90;;;;;;4983603;28;20022;-85
2021/05/05 05:09:52;;;;;;;1.63;0.40;;;6.60;99.90;;;;;;4970654;28;20547;-84
2021/05/05 05:12:18;;;;;;;1.40;0.20;;;6.50;99.90;;;;;;4973427;28;20106;-84
2021/05/05 05:14:44;;;;;;;1.10;0.20;;;6.40;99.90;;;;;;4970755;28;20022;-84
2021/05/05 05:17:09;;;;;;;0.87;0.20;;;6.30;99.90;;;;;;4995188;28;20391;-84
2021/05/05 05:19:35;;;;;;;1.57;0.40;;;6.30;99.90;;;;;;4995784;28;20030;-84
2021/05/05 05:22:01;;;;;;;4.97;0.60;;;6.20;99.90;;;;;;4994881;28;20088;-85
2021/05/05 05:24:28;;;;;;;2.63;0.30;;;6.20;99.90;;;;;;4978175;28;20511;-84
2021/05/05 05:26:53;;;;;;;1.20;0.30;;;6.20;99.90;;;;;;4973973;28;20026;-84
2021/05/05 05:29:19;;;;;;;1.03;0.23;;;6.20;99.90;;;;;;4972896;28;20042;-84
2021/05/05 05:31:46;;;;;;;2.13;0.30;;;6.20;99.90;;;;;;4985177;28;20095;-83
2021/05/05 05:34:12;;;;;;;2.00;0.33;;;6.30;99.90;;;;;;4975744;28;20427;-83
2021/05/05 05:36:38;;;;;;;2.23;0.30;;;6.30;99.90;;;;;;4979357;28;20033;-84
2021/05/05 05:39:05;;;;;;;3.37;0.30;;;6.20;99.90;;;;;;4972729;28;20035;-84
2021/05/05 05:41:30;;;;;;;1.80;0.50;;;6.30;99.90;;;;;;4976484;28;20042;-84
2021/05/05 05:43:56;;;;;;;1.57;0.20;;;6.40;99.90;;;;;;4961387;28;20038;-84
2021/05/05 05:46:21;;;;;;;0.70;0.20;;;6.50;99.90;;;;;;4975792;28;20088;-83
2021/05/05 05:48:47;;;;;;;1.00;0.50;;;6.50;99.90;;;;;;4956364;28;20027;-84
2021/05/05 05:51:13;;;;;;;4.00;0.40;;;6.50;99.90;;;;;;4966884;28;20034;-84
2021/05/05 05:53:39;;;;;;;1.27;0.37;;;6.50;99.90;;;;;;4965530;28;20034;-84
2021/05/05 05:56:06;;;;;;;1.70;0.30;;;6.60;99.90;;;;;;4965481;28;20027;-84
2021/05/05 05:58:32;;;;;;;5.30;0.43;;;6.70;99.90;;;;;;4952104;28;20023;-84
2021/05/05 06:00:58;;;;;;;2.73;0.40;;;6.70;99.90;;;;;;4965052;28;20042;-84
2021/05/05 06:03:24;;;;;;;2.00;0.33;;;6.70;99.90;;;;;;4986285;28;20031;-84
2021/05/05 06:05:49;;;;;;;2.43;0.50;;;6.70;99.90;;;;;;4961518;28;20018;-84
2021/05/05 06:08:20;;;;;;;2.63;0.50;;;6.60;99.90;;;;;;4976484;28;20049;-84
2021/05/05 06:10:46;;;;;;;2.53;0.50;;;6.70;99.90;;;;;;4974691;28;20499;-84
2021/05/05 06:13:12;;;;;;;2.43;0.40;;;6.70;99.90;;;;;;4970993;28;20026;-84
2021/05/05 06:15:37;;;;;;;2.17;0.57;;;6.70;99.90;;;;;;4979380;28;20153;-84
2021/05/05 06:18:05;;;;;;;3.20;0.60;;;6.70;99.90;;;;;;4962742;28;20123;-84
2021/05/05 06:20:32;;;;;;;3.00;0.50;;;6.70;99.90;;;;;;4965313;28;20038;-84
2021/05/05 06:22:57;;;;;;;4.67;0.73;;;6.70;99.90;;;;;;4972814;28;20038;-84
2021/05/05 06:25:23;;;;;;;1.90;0.50;;;6.80;99.90;;;;;;4976493;28;20035;-84
2021/05/05 06:27:49;;;;;;;4.40;0.40;;;6.80;99.90;;;;;;4966206;28;20030;-84
2021/05/05 06:30:16;;;;;;;2.20;0.60;;;6.90;99.90;;;;;;4974414;28;20503;-84
2021/05/05 06:32:41;;;;;;;3.77;0.83;;;6.80;99.90;;;;;;4977911;28;20060;-85
2021/05/05 06:35:08;;;;;;;3.47;0.73;;;6.70;99.90;;;;;;4976335;28;20086;-86
2021/05/05 06:37:35;;;;;;;5.87;0.53;;;6.70;99.90;;;;;;4977329;28;20055;-84
2021/05/05 06:40:02;;;;;;;4.03;0.60;;;6.60;99.90;;;;;;4979708;28;20108;-84
2021/05/05 06:42:29;;;;;;;2.93;0.90;;;6.70;99.90;;;;;;4980631;28;20038;-85
2021/05/05 06:44:56;;;;;;;5.37;1.03;;;6.70;99.90;;;;;;4986685;28;20038;-85
2021/05/05 06:47:24;;;;;;;4.47;0.63;;;6.70;99.90;;;;;;4984703;28;20101;-84
2021/05/05 06:49:50;;;;;;;6.50;0.97;;;6.80;99.90;;;;;;4961796;28;20062;-84
2021/05/05 06:52:15;;;;;;;6.70;0.97;;;6.90;99.90;;;;;;4979123;28;20177;-88
2021/05/05 06:54:41;;;;;;;5.40;0.80;;;6.80;99.90;;;;;;4963751;28;20509;-88
2021/05/05 06:57:08;;;;;;;3.47;0.80;;;6.80;99.90;;;;;;4964738;28;20022;-89
2021/05/05 06:59:35;;;;;;;6.07;1.03;;;7.00;99.90;;;;;;4966160;28;20038;-89
2021/05/05 07:02:32;;;;;;;4.77;0.90;;;7.20;99.90;;;;;;4959462;28;20030;-90
2021/05/05 07:05:25;;;;;;;6.63;1.23;;;7.40;99.90;;;;;;4975990;28;20132;-90
2021/05/05 07:08:04;;;;;;;5.13;1.00;;;7.60;99.90;;;;;;4971354;28;20456;-91
2021/05/05 07:13:49;;;;;;;3.90;0.93;;;8.40;99.90;;;;;;4971521;28;20066;-90
2021/05/05 07:17:39;;;;;;;5.17;0.87;;;8.30;99.90;;;;;;4918568;28;20038;-89
2021/05/05 07:24:12;;;;;;;7.37;0.90;;;8.40;99.90;;;;;;4859892;29;20037;-91
2021/05/05 07:38:13;;;;;;;5.60;0.80;;;8.50;99.90;;;;;;3105587;22;20057;-91
2021/05/05 07:53:24;;;;;;;4.63;0.90;;;8.70;99.90;;;;;;4971581;28;20068;-90
2021/05/05 07:55:51;;;;;;;6.28;0.75;;;8.40;99.90;;;;;;5016805;28;20036;-89
2021/05/05 07:59:01;;;;;;;2.92;0.70;;;8.30;99.90;;;;;;5000813;28;20145;-88
2021/05/05 08:01:31;;;;;;;7.70;0.80;;;8.40;99.90;;;;;;5004310;28;20056;-88
2021/05/05 08:08:00;;;;;;;5.78;0.57;;;8.80;99.90;;;;;;5013198;28;20117;-89
2021/05/05 08:10:29;;;;;;;4.80;0.77;;;8.90;99.90;;;;;;4949706;28;20045;-88
2021/05/05 08:12:55;;;;;;;3.67;0.88;;;9.10;99.90;;;;;;5007721;28;20045;-89
2021/05/05 08:15:33;;;;;;;3.58;0.70;;;9.20;99.90;;;;;;5015759;28;20080;-89
2021/05/05 08:17:59;;;;;;;2.22;0.60;;;9.70;99.90;;;;;;4993729;28;20109;-88
2021/05/05 08:20:24;;;;;;;4.13;0.60;;;9.80;99.90;;;;;;4999755;28;20423;-88
2021/05/05 08:22:50;;;;;;;11.70;0.98;;;9.80;98.90;;;;;;4997427;28;20105;-89
2021/05/05 08:25:16;;;;;;;4.35;0.70;;;9.70;97.60;;;;;;4996566;28;20117;-88
2021/05/05 09:04:05;;;;;;;4.05;0.70;;;9.30;99.90;;;;;;4620708;22;20030;-90
2021/05/05 09:06:51;;;;;;;3.83;0.60;;;9.40;99.90;;;;;;5004193;28;20065;-90
2021/05/05 09:10:00;;;;;;;3.72;0.70;;;9.70;99.90;;;;;;5017771;28;20053;-91
2021/05/05 09:12:26;;;;;;;6.13;1.65;;;10.00;99.90;;;;;;4965287;28;20027;-90
2021/05/05 09:14:54;;;;;;;3.63;0.57;;;10.50;97.20;;;;;;5016976;28;20024;-92
2021/05/05 09:17:45;;;;;;;5.22;0.70;;;10.50;96.20;;;;;;5017155;23;20045;-86
2021/05/05 09:20:30;;;;;;;4.60;0.73;;;10.70;96.80;;;;;;4964519;28;20037;-85
2021/05/05 09:22:58;;;;;;;4.88;0.70;;;11.40;93.40;;;;;;4994892;28;20121;-86
2021/05/05 09:25:45;;;;;;;6.03;0.70;;;11.50;90.50;;;;;;4994515;28;20021;-88
2021/05/05 09:28:17;;;;;;;2.20;0.57;;;11.00;90.80;;;;;;4973796;28;20014;-87
2021/05/05 09:30:44;;;;;;;3.05;0.50;;;10.80;91.50;;;;;;4973303;28;20038;-87
2021/05/05 09:33:20;;;;;;;6.70;0.70;;;10.50;91.60;;;;;;4978474;28;20111;-86
2021/05/05 09:35:54;;;;;;;5.78;0.70;;;10.60;93.30;;;;;;4996225;28;20035;-86
2021/05/05 09:38:20;;;;;;;4.60;0.80;;;10.00;93.60;;;;;;4972000;28;20104;-85
2021/05/05 09:40:58;;;;;;;4.30;0.90;;;9.70;95.50;;;;;;4976976;28;20042;-86
2021/05/05 09:43:24;;;;;;;4.90;0.90;;;9.60;96.30;;;;;;4975723;28;20022;-87
2021/05/05 09:45:50;;;;;;;4.65;0.60;;;9.70;98.30;;;;;;4978724;28;20026;-87
2021/05/05 09:48:24;;;;;;;6.32;0.60;;;10.00;97.20;;;;;;4993722;28;20190;-87
2021/05/05 09:50:59;;;;;;;7.40;1.27;;;10.40;95.70;;;;;;4980899;28;20034;-87
2021/05/05 09:53:31;;;;;;;4.63;0.77;;;10.80;94.50;;;;;;4988775;28;20025;-88
2021/05/05 09:55:58;;;;;;;5.82;1.08;;;10.70;92.20;;;;;;4995374;28;20034;-88
2021/05/05 09:58:30;;;;;;;2.47;0.50;;;11.00;89.90;;;;;;4978065;28;20038;-88
2021/05/05 10:01:11;;;;;;;4.65;0.60;;;11.00;87.80;;;;;;4976414;28;20037;-88
2021/05/05 10:03:43;;;;;;;5.43;0.68;;;11.00;88.00;;;;;;4972443;28;20373;-88
2021/05/05 10:06:31;;;;;;;3.33;0.50;;;11.00;82.50;;;;;;4980650;28;20030;-88
2021/05/05 10:09:08;;;;;;;2.55;0.50;;;11.30;84.30;;;;;;4981775;28;20057;-88
2021/05/05 10:11:38;;;;;;;2.85;0.70;;;11.30;75.70;;;;;;4981625;28;20033;-88
2021/05/05 10:14:12;;;;;;;4.38;0.70;;;11.40;75.70;;;;;;4996221;28;20045;-87
2021/05/05 10:16:41;;;;;;;4.38;0.98;;;11.20;77.10;;;;;;4985076;28;20100;-87
2021/05/05 10:19:14;;;;;;;1.75;0.73;;;11.20;76.70;;;;;;4985918;28;20037;-88
2021/05/05 10:21:45;;;;;;;3.92;1.42;;;11.40;75.50;;;;;;4998776;28;20038;-87
2021/05/05 10:24:11;;;;;;;4.90;0.70;;;11.40;75.10;;;;;;4976912;28;20096;-86
2021/05/05 10:26:40;;;;;;;5.53;0.70;;;11.20;74.90;;;;;;4978980;28;20037;-86
2021/05/05 10:29:06;;;;;;;3.13;0.60;;;11.40;75.40;;;;;;4973056;28;20080;-86
2021/05/05 10:31:35;;;;;;;5.20;0.50;;;11.50;75.90;;;;;;4977384;28;20030;-86
2021/05/05 10:34:02;;;;;;;3.63;0.57;;;11.80;77.00;;;;;;4983042;28;20074;-86
2021/05/05 10:36:46;;;;;;;3.25;0.60;;;12.10;77.40;;;;;;5001744;28;20026;-86
2021/05/05 10:39:11;;;;;;;3.20;0.68;;;12.30;73.60;;;;;;4978590;28;20975;-86
2021/05/05 10:41:40;;;;;;;3.08;0.65;;;12.50;72.50;;;;;;4975238;28;20109;-87
2021/05/05 10:44:06;;;;;;;3.05;0.60;;;12.30;76.30;;;;;;4984099;28;20053;-86
2021/05/05 10:46:38;;;;;;;6.05;1.27;;;12.70;74.30;;;;;;4976969;28;20081;-88
2021/05/05 10:49:13;;;;;;;3.38;0.90;;;12.80;74.60;;;;;;4977303;28;20092;-87
2021/05/05 10:51:45;;;;;;;4.03;0.77;;;12.60;73.70;;;;;;4976844;28;20046;-87
2021/05/05 10:54:18;;;;;;;3.97;0.88;;;12.50;70.30;;;;;;4977656;28;20108;-86
2021/05/05 10:57:07;;;;;;;2.67;0.40;;;12.00;70.70;;;;;;4977704;28;20443;-87
2021/05/05 10:59:57;;;;;;;1.13;0.30;;;11.40;71.20;;;;;;4988134;28;20376;-86
2021/05/05 11:02:47;;;;;;;2.10;0.40;;;10.80;80.90;;;;;;4992755;28;20199;-86
2021/05/05 11:05:31;;;;;;;0.63;0.35;;;9.90;93.50;;;;;;4981694;28;20034;-86
2021/05/05 11:08:05;;;;;;;2.30;0.20;;;9.10;99.90;;;;;;4975435;28;20060;-86
2021/05/05 11:10:31;;;;;;;1.20;0.17;;;8.00;99.90;;;;;;4985334;28;20034;-87
2021/05/05 11:13:24;;;;;;;0.73;0.23;;;7.50;99.90;;;;;;4996204;28;20022;-88
2021/05/05 11:15:50;;;;;;;0.80;0.30;;;6.90;99.90;;;;;;4983871;28;20068;-87
2021/05/05 11:18:28;;;;;;;1.07;0.30;;;7.10;99.90;;;;;;4980540;28;20121;-87
2021/05/05 11:21:00;;;;;;;1.77;0.17;;;7.00;99.90;;;;;;4985791;28;20149;-86
2021/05/05 11:23:52;;;;;;;0.77;0.20;;;7.10;99.90;;;;;;4986131;28;20022;-87
2021/05/05 11:26:31;;;;;;;0.60;0.28;;;7.10;99.90;;;;;;4994828;28;20051;-87
2021/05/05 11:29:08;;;;;;;2.00;0.50;;;7.00;99.90;;;;;;4983523;28;20672;-87
2021/05/05 11:31:46;;;;;;;0.90;0.30;;;7.00;99.90;;;;;;4979328;28;20022;-88
2021/05/05 11:34:23;;;;;;;2.27;0.40;;;7.10;99.90;;;;;;4996074;28;20022;-87
2021/05/05 11:36:55;;;;;;;1.43;0.30;;;7.40;99.90;;;;;;4982836;28;20026;-88
2021/05/05 11:39:26;;;;;;;1.25;0.30;;;7.50;99.90;;;;;;4973309;28;20034;-87
2021/05/05 11:42:00;;;;;;;1.43;0.27;;;7.60;99.90;;;;;;4985992;28;20540;-87
2021/05/05 11:44:49;;;;;;;0.60;0.30;;;7.80;99.90;;;;;;4983072;28;20525;-87
2021/05/05 11:47:36;;;;;;;0.97;0.20;;;7.90;99.90;;;;;;4979654;28;20107;-87
2021/05/05 11:50:05;;;;;;;1.77;0.40;;;8.00;99.90;;;;;;5002307;28;20487;-87
2021/05/05 11:52:35;;;;;;;2.27;0.30;;;8.20;99.90;;;;;;4986344;28;20022;-86
2021/05/05 11:55:14;;;;;;;2.00;0.30;;;8.80;99.90;;;;;;5001583;28;20097;-83
2021/05/05 11:57:45;;;;;;;10.40;2.77;;;9.40;99.90;;;;;;4982506;28;20415;-83
2021/05/05 12:00:13;;;;;;;4.25;0.70;;;9.50;99.90;;;;;;5000021;28;20029;-83
2021/05/05 12:02:50;;;;;;;2.07;0.80;;;9.00;99.90;;;;;;4983627;28;20080;-84
2021/05/05 12:05:31;;;;;;;3.03;0.60;;;8.80;99.90;;;;;;4989549;28;20030;-85
2021/05/05 12:08:03;;;;;;;3.88;0.45;;;8.90;99.90;;;;;;5006243;28;20077;-82
2021/05/05 12:10:51;;;;;;;2.63;0.43;;;9.10;99.90;;;;;;5005967;28;20069;-83
2021/05/05 12:13:24;;;;;;;1.25;0.38;;;9.40;99.90;;;;;;5001960;28;20058;-83
2021/05/05 12:16:06;;;;;;;2.15;0.40;;;10.00;99.90;;;;;;4978475;28;20022;-84
2021/05/05 12:18:44;;;;;;;1.77;0.60;;;10.50;99.90;;;;;;4988324;28;20148;-82
2021/05/05 12:21:11;;;;;;;2.03;0.38;;;11.10;99.90;;;;;;5005511;28;20049;-83
2021/05/05 12:23:47;;;;;;;2.47;0.40;;;11.40;99.90;;;;;;4986185;28;20439;-83
2021/05/05 12:26:25;;;;;;;2.60;0.38;;;12.00;99.90;;;;;;5005600;28;20086;-83
2021/05/05 12:28:56;;;;;;;3.45;0.57;;;12.20;98.10;;;;;;4998281;28;20023;-85
2021/05/05 12:31:30;;;;;;;1.35;0.43;;;12.30;97.20;;;;;;4985714;28;20022;-84
2021/05/05 12:34:00;;;;;;;1.92;0.40;;;12.10;96.00;;;;;;4979935;28;20061;-85
2021/05/05 12:36:28;;;;;;;1.27;0.47;;;12.10;96.60;;;;;;4984245;28;20057;-85
2021/05/05 12:38:59;;;;;;;2.70;0.60;;;11.90;94.80;;;;;;4983289;28;20376;-85
2021/05/05 12:42:04;;;;;;;2.65;0.40;;;11.70;96.50;;;;;;4985855;28;20048;-84
2021/05/05 12:44:35;;;;;;;1.08;0.35;;;11.60;97.40;;;;;;4959404;28;20038;-84
2021/05/05 12:47:08;;;;;;;2.72;0.88;;;11.40;97.40;;;;;;4976639;28;20026;-85
2021/05/05 12:49:40;;;;;;;1.65;0.45;;;11.10;91.10;;;;;;4989425;28;20143;-82
2021/05/05 12:52:08;;;;;;;1.73;0.20;;;10.70;87.90;;;;;;5002133;28;20049;-84
2021/05/05 12:54:44;;;;;;;1.25;0.30;;;10.30;93.40;;;;;;4986046;28;20060;-83
2021/05/05 12:57:22;;;;;;;1.35;0.40;;;10.50;98.90;;;;;;5003865;28;20034;-84
2021/05/05 12:59:49;;;;;;;0.98;0.30;;;11.20;99.90;;;;;;4983065;28;20176;-83
2021/05/05 13:02:24;;;;;;;1.63;0.40;;;11.50;96.90;;;;;;5003046;28;20026;-82
2021/05/05 13:04:52;;;;;;;2.30;0.47;;;11.60;95.80;;;;;;4982155;28;20058;-83
2021/05/05 13:07:25;;;;;;;1.95;0.30;;;11.90;98.00;;;;;;4979636;28;20034;-85
2021/05/05 13:10:16;;;;;;;1.70;0.30;;;12.60;96.50;;;;;;5002837;28;20095;-83
2021/05/05 13:12:51;;;;;;;2.77;0.50;;;13.00;93.70;;;;;;4980411;28;20033;-83
2021/05/05 13:15:28;;;;;;;1.05;0.30;;;13.50;93.20;;;;;;4984433;28;20397;-84
2021/05/05 13:18:12;;;;;;;1.92;0.60;;;13.90;92.60;;;;;;4984705;28;20084;-86
2021/05/05 13:31:29;;;;;;;2.97;0.50;;;13.60;87.50;;;;;;5001598;28;20065;-84
2021/05/05 13:34:10;;;;;;;2.10;0.40;;;12.90;84.80;;;;;;4981174;28;20039;-86
2021/05/05 13:36:56;;;;;;;3.33;0.40;;;12.30;88.90;;;;;;4978793;28;20072;-85
2021/05/05 13:39:36;;;;;;;1.27;0.32;;;12.10;91.50;;;;;;4988652;28;20030;-83
2021/05/05 13:42:10;;;;;;;2.10;0.30;;;11.60;90.90;;;;;;4981297;28;20030;-84
2021/05/05 13:44:50;;;;;;;1.42;0.32;;;11.50;98.90;;;;;;4989264;28;20106;-84
2021/05/05 13:47:22;;;;;;;1.23;0.30;;;11.40;96.00;;;;;;4986688;28;20058;-83
2021/05/05 13:49:58;;;;;;;1.67;0.30;;;11.40;94.30;;;;;;4983555;28;20029;-84
2021/05/05 13:52:25;;;;;;;0.63;0.20;;;11.20;92.30;;;;;;4980458;28;20031;-85
2021/05/05 13:54:52;;;;;;;0.57;0.20;;;11.20;92.90;;;;;;4989888;28;20041;-85
2021/05/05 13:57:18;;;;;;;1.98;0.20;;;11.50;91.70;;;;;;5013060;28;20026;-85
2021/05/05 13:59:45;;;;;;;0.63;0.20;;;12.20;92.10;;;;;;5005447;28;20029;-83
2021/05/05 14:02:12;;;;;;;0.60;0.20;;;12.70;90.00;;;;;;5005946;28;20033;-84
2021/05/05 14:04:38;;;;;;;0.82;0.30;;;13.20;89.40;;;;;;4998313;28;20034;-83
2021/05/05 14:07:09;;;;;;;0.98;0.20;;;14.00;87.90;;;;;;5001432;28;20030;-84
2021/05/05 14:09:35;;;;;;;1.60;0.30;;;14.50;86.40;;;;;;4997960;28;20061;-83
2021/05/05 14:12:02;;;;;;;1.30;0.25;;;15.00;79.80;;;;;;5007798;28;20423;-85
2021/05/05 14:14:28;;;;;;;2.67;0.32;;;15.40;80.70;;;;;;4982733;28;20621;-84
2021/05/05 14:16:56;;;;;;;3.40;0.50;;;15.10;78.10;;;;;;4983071;28;20116;-85
2021/05/05 14:19:22;;;;;;;1.40;0.38;;;15.40;75.50;;;;;;4991030;28;20038;-84
2021/05/05 14:21:49;;;;;;;1.25;0.30;;;15.00;70.90;;;;;;4992288;28;20028;-86
2021/05/05 14:24:15;;;;;;;2.97;0.60;;;14.90;74.00;;;;;;4975157;28;20026;-86
2021/05/05 14:26:46;;;;;;;3.15;0.40;;;15.40;74.50;;;;;;4981182;28;20030;-86
2021/05/05 14:29:14;;;;;;;3.88;0.70;;;15.50;71.00;;;;;;4979183;28;20042;-86
2021/05/05 14:31:40;;;;;;;1.63;0.35;;;15.70;68.80;;;;;;4993769;28;20062;-85